Pagina principale
METAR-TAF:

METAR-TAF

Aeroporti :

Aurillac, Francia

latitudine: 44-53N, longitudine: 002-25E, altezza: 639 m

Osservazione

Il bollettino è stato emesso 27 minuti fa, alle 04:00 UTC
Vento 7 kt da est
Temperature 21°C
Umidità 43%
Pressione 1023 hPa
Visibilità 10 km o più
nessuna nube inferiore a 1500 m e nessun cumulonembo

METAR: LFLW 270400Z AUTO 10007KT CAVOK 21/08 Q1023

Ora: 06:27 (04:27 UTC)

Previsione

Il bollettino è stato emesso 14 ore e 27 minuti fa, alle 14:00 UTC
Previsione valida dal 26 alle 15 UTC al 26 alle 24 UTC
Vento 10 kt da sud/sud-est con raffiche fino a 20 kt
Visibilità 10 km o più
nessuna nube inferiore a 1500 m e nessun cumulonembo

TAF: LFLW 261400Z 2615/2624 15010G20KT CAVOK

Osservazioni e previsioni meteorologiche di più di 4000 aeroporti (messaggi METAR e TAF).

Le stazioni disponibili sono rappresentate dai dischi gialli e rossi sulla carta.

Puntare il mouse per vedere il nome della stazione.

Clicca sopra per visualizzare le osservazioni e previsioni meteorologiche.

Per cambiare la mappa : fare clic sui pulsanti verdi con una croce nera per ingrandire, il pulsante verde con un trattino per diminuire, o sulla freccia verde per le mappe adiacenti.


METAR-TAF: